createdAt,value
2022-08-03T00:04:33.938Z,77.63
2022-08-03T00:09:36.347Z,77.88
2022-08-03T00:14:38.097Z,78.46
2022-08-03T00:19:39.788Z,79.03
2022-08-03T00:24:41.582Z,78.86
2022-08-03T00:29:59.657Z,79.09
2022-08-03T00:35:04.344Z,79.07
2022-08-03T00:40:15.722Z,79.59
2022-08-03T00:45:27.878Z,79.55
2022-08-03T00:50:34.663Z,80.13
2022-08-03T00:55:37.295Z,79.73
2022-08-03T01:00:40.565Z,79.82
2022-08-03T01:05:52.625Z,79.68
2022-08-03T01:11:15.808Z,80.16
2022-08-03T01:16:35.686Z,80.35
2022-08-03T01:22:18.083Z,80.60
2022-08-03T01:27:25.929Z,81.20
2022-08-03T01:32:59.978Z,80.66
2022-08-03T01:38:05.841Z,81.71
2022-08-03T01:43:10.779Z,81.51
2022-08-03T01:48:17.072Z,81.97
2022-08-03T01:53:21.225Z,82.43
2022-08-03T01:58:25.040Z,83.01
2022-08-03T02:03:28.890Z,82.45
2022-08-03T02:08:31.256Z,82.47
2022-08-03T02:13:34.864Z,82.64
2022-08-03T02:18:39.641Z,82.73
2022-08-03T02:23:41.989Z,82.65
2022-08-03T02:28:47.613Z,82.45
2022-08-03T02:34:00.920Z,82.61
2022-08-03T02:39:05.115Z,82.70
2022-08-03T02:44:09.600Z,82.68
2022-08-03T02:49:41.076Z,83.37
2022-08-03T02:54:38.199Z,82.70
2022-08-03T02:59:41.184Z,82.56
2022-08-03T03:05:51.745Z,82.71
2022-08-03T03:10:07.958Z,81.98
2022-08-03T03:15:10.559Z,82.81
2022-08-03T03:20:12.841Z,82.95
2022-08-03T03:25:15.678Z,82.79
2022-08-03T03:30:17.416Z,83.96
2022-08-03T03:35:19.326Z,84.24
2022-08-03T03:40:22.232Z,84.11
2022-08-03T03:45:24.533Z,84.53
2022-08-03T03:50:27.414Z,85.33
2022-08-03T03:55:29.320Z,85.64
2022-08-03T04:00:31.360Z,85.42
2022-08-03T04:05:51.826Z,84.21
2022-08-03T04:11:13.206Z,82.92
2022-08-03T04:16:18.289Z,81.38
2022-08-03T04:21:23.558Z,80.20
2022-08-03T04:26:29.391Z,78.94
2022-08-03T04:31:32.405Z,77.26
2022-08-03T04:36:40.004Z,76.92
2022-08-03T04:42:07.244Z,75.76
2022-08-03T04:47:06.941Z,75.35
2022-08-03T04:52:10.146Z,74.47
2022-08-03T04:57:22.081Z,73.99
2022-08-03T05:02:25.384Z,72.99
2022-08-03T05:07:35.673Z,72.15
2022-08-03T05:12:39.147Z,71.44
2022-08-03T05:17:41.153Z,70.83
2022-08-03T05:22:42.970Z,70.04
2022-08-03T05:27:44.829Z,69.96
2022-08-03T05:32:46.534Z,69.79
2022-08-03T05:37:54.835Z,69.62
2022-08-03T05:42:57.641Z,68.54
2022-08-03T05:47:59.992Z,68.93
2022-08-03T05:53:01.865Z,68.03
2022-08-03T05:58:04.092Z,67.15
2022-08-03T06:03:06.745Z,67.69
2022-08-03T06:08:08.593Z,68.00
2022-08-03T06:13:10.418Z,68.52
2022-08-03T06:18:12.444Z,68.25
2022-08-03T06:23:17.567Z,67.57
2022-08-03T06:28:51.620Z,68.31
2022-08-03T06:34:30.213Z,67.57
2022-08-03T06:39:04.583Z,68.15
2022-08-03T06:44:06.419Z,67.82
2022-08-03T06:49:08.325Z,66.19
2022-08-03T06:54:10.905Z,65.54
2022-08-03T07:00:10.827Z,66.18
2022-08-03T07:04:34.178Z,65.08
2022-08-03T07:09:35.916Z,65.14
2022-08-03T07:14:37.763Z,65.21
2022-08-03T07:19:39.701Z,64.71
2022-08-03T07:24:44.750Z,64.27
2022-08-03T07:29:46.594Z,64.41
2022-08-03T07:34:48.322Z,64.25
2022-08-03T07:39:50.160Z,65.02
2022-08-03T07:44:52.157Z,64.10
2022-08-03T07:49:54.476Z,64.74
2022-08-03T07:54:56.250Z,63.61
2022-08-03T08:00:02.416Z,63.18
2022-08-03T08:05:13.818Z,62.80
2022-08-03T08:10:15.761Z,62.84
2022-08-03T08:15:17.462Z,62.69
2022-08-03T08:20:30.753Z,61.98
2022-08-03T08:25:34.181Z,58.27
2022-08-03T08:30:36.561Z,58.63
2022-08-03T08:35:38.565Z,57.40
2022-08-03T08:40:40.930Z,57.47
2022-08-03T08:45:42.683Z,57.71
2022-08-03T08:50:45.310Z,54.89
2022-08-03T08:55:58.447Z,54.36
2022-08-03T09:01:01.836Z,54.26
2022-08-03T09:06:04.399Z,53.51
2022-08-03T09:11:11.115Z,52.50
2022-08-03T09:16:17.562Z,53.48
2022-08-03T09:21:33.602Z,52.32
2022-08-03T09:26:37.611Z,51.88
2022-08-03T09:31:43.046Z,51.48
2022-08-03T09:36:47.703Z,49.83
2022-08-03T09:42:05.447Z,51.97
2022-08-03T09:47:07.180Z,50.50
2022-08-03T09:52:32.692Z,50.70
2022-08-03T09:57:40.954Z,51.77
2022-08-03T10:02:46.716Z,49.91
2022-08-03T10:07:49.981Z,50.29
2022-08-03T10:12:52.561Z,48.68
2022-08-03T10:17:54.209Z,49.74
2022-08-03T10:22:56.822Z,49.25
2022-08-03T10:28:02.144Z,45.87
2022-08-03T10:33:50.217Z,47.63
2022-08-03T10:38:53.101Z,46.98
2022-08-03T10:44:09.617Z,45.57
2022-08-03T10:49:34.543Z,46.24
2022-08-03T10:54:37.233Z,46.67
2022-08-03T10:59:57.776Z,44.09
2022-08-03T11:05:26.216Z,46.87
2022-08-03T11:10:31.936Z,44.29
2022-08-03T11:15:35.927Z,45.14
2022-08-03T11:20:59.319Z,43.85
2022-08-03T11:26:10.853Z,44.46
2022-08-03T11:31:49.942Z,43.18
2022-08-03T11:37:22.559Z,43.04
2022-08-03T11:42:24.724Z,44.16
2022-08-03T11:47:28.773Z,44.84
2022-08-03T11:52:38.781Z,45.52
2022-08-03T11:59:16.588Z,43.57
2022-08-03T12:03:05.982Z,46.05
2022-08-03T12:08:09.557Z,42.04
2022-08-03T12:14:10.734Z,42.50
2022-08-03T12:18:33.544Z,43.50
2022-08-03T12:23:37.981Z,43.80
2022-08-03T12:28:49.861Z,43.73
2022-08-03T12:34:10.004Z,40.48
2022-08-03T12:39:12.021Z,40.83
2022-08-03T12:44:13.929Z,40.77
2022-08-03T12:49:18.696Z,39.12
2022-08-03T12:54:24.356Z,39.50
2022-08-03T12:59:32.529Z,38.77
2022-08-03T13:04:37.178Z,39.53
2022-08-03T13:09:46.995Z,39.32
2022-08-03T13:14:51.889Z,37.21
2022-08-03T13:19:53.818Z,37.83
2022-08-03T13:24:57.760Z,39.78
2022-08-03T13:29:59.590Z,40.68
2022-08-03T13:35:02.786Z,40.50
2022-08-03T13:40:11.583Z,39.03
2022-08-03T13:45:13.724Z,38.03
2022-08-03T13:50:15.594Z,38.02
2022-08-03T13:55:17.430Z,37.96
2022-08-03T14:00:27.513Z,38.31
2022-08-03T14:05:32.076Z,39.39
2022-08-03T14:10:40.018Z,38.39
2022-08-03T14:15:42.344Z,39.20
2022-08-03T14:20:56.189Z,40.35
2022-08-03T14:25:59.038Z,40.20
2022-08-03T14:31:01.676Z,39.80
2022-08-03T14:36:18.205Z,40.07
2022-08-03T14:41:22.244Z,40.79
2022-08-03T14:46:24.198Z,39.53
2022-08-03T14:51:26.060Z,38.47
2022-08-03T14:56:33.713Z,39.24
2022-08-03T15:02:04.903Z,39.55
2022-08-03T15:06:57.294Z,39.44
2022-08-03T15:11:59.056Z,38.93
2022-08-03T15:17:01.120Z,37.97
2022-08-03T15:22:02.930Z,40.41
2022-08-03T15:27:08.582Z,40.14
2022-08-03T15:32:10.273Z,41.17
2022-08-03T15:37:16.418Z,40.40
2022-08-03T15:42:24.960Z,41.48
2022-08-03T15:47:27.033Z,40.89
2022-08-03T15:52:30.919Z,40.57
2022-08-03T15:57:32.882Z,40.43
2022-08-03T16:02:35.554Z,40.49
2022-08-03T16:08:02.619Z,40.55
2022-08-03T16:13:05.056Z,42.08
2022-08-03T16:18:07.887Z,41.46
2022-08-03T16:23:11.383Z,41.86
2022-08-03T16:28:15.093Z,41.61
2022-08-03T16:33:17.920Z,41.97
2022-08-03T16:38:19.914Z,41.75
2022-08-03T16:43:25.278Z,41.69
2022-08-03T16:48:27.155Z,41.95
2022-08-03T16:53:51.676Z,42.35
2022-08-03T16:58:50.597Z,44.00
2022-08-03T17:04:02.312Z,45.44
2022-08-03T17:09:13.908Z,45.52
2022-08-03T17:14:21.907Z,46.32
2022-08-03T17:19:24.916Z,46.47
2022-08-03T17:24:34.996Z,46.75
2022-08-03T17:29:45.227Z,46.68
2022-08-03T17:34:48.865Z,46.22
2022-08-03T17:39:59.608Z,47.05
2022-08-03T17:45:03.961Z,47.10
2022-08-03T17:50:23.912Z,46.93
2022-08-03T17:55:56.991Z,48.24
2022-08-03T18:02:00.650Z,50.43
2022-08-03T18:06:37.900Z,50.84
2022-08-03T18:12:00.920Z,52.25
2022-08-03T18:17:06.582Z,53.90
2022-08-03T18:22:13.712Z,55.30
2022-08-03T18:27:16.378Z,54.79
2022-08-03T18:32:21.449Z,54.89
2022-08-03T18:37:27.953Z,57.26
2022-08-03T18:42:32.135Z,58.00
2022-08-03T18:47:57.549Z,58.67
2022-08-03T18:53:15.646Z,58.67
2022-08-03T18:59:03.597Z,59.00
2022-08-03T19:04:13.317Z,60.17
2022-08-03T19:09:31.969Z,60.97
2022-08-03T19:14:42.446Z,62.21
2022-08-03T19:19:45.612Z,62.85
2022-08-03T19:24:49.132Z,63.10
2022-08-03T19:29:58.427Z,63.46
2022-08-03T19:35:18.698Z,63.99
2022-08-03T19:40:20.957Z,63.65
2022-08-03T19:46:04.543Z,63.35
2022-08-03T19:50:59.158Z,63.48
2022-08-03T19:56:12.685Z,64.11
2022-08-03T20:01:19.216Z,64.87
2022-08-03T20:06:23.671Z,65.60
2022-08-03T20:11:29.028Z,65.76
2022-08-03T20:16:31.057Z,66.82
2022-08-03T20:21:34.955Z,67.49
2022-08-03T20:26:41.919Z,67.71
2022-08-03T20:31:45.176Z,67.52
2022-08-03T20:36:47.091Z,67.98
2022-08-03T20:41:48.980Z,68.04
2022-08-03T20:52:18.688Z,68.79
2022-08-03T20:57:20.907Z,69.14
2022-08-03T21:02:30.496Z,69.38
2022-08-03T21:08:03.750Z,69.57
2022-08-03T21:13:12.649Z,68.15
2022-08-03T21:13:37.503Z,69.47
2022-08-03T21:18:46.232Z,69.62
2022-08-03T21:23:54.815Z,69.59
2022-08-03T21:28:56.881Z,69.43
2022-08-03T21:34:02.146Z,70.39
2022-08-03T21:39:07.365Z,71.34
2022-08-03T21:44:09.167Z,71.27
2022-08-03T21:50:07.142Z,71.61
2022-08-03T21:54:40.825Z,72.15
2022-08-03T21:59:47.976Z,72.08
2022-08-03T22:04:55.448Z,72.63
2022-08-03T22:10:00.669Z,72.97
2022-08-03T22:15:06.201Z,73.64
2022-08-03T22:20:10.541Z,73.74
2022-08-03T22:25:15.940Z,73.74
2022-08-03T22:30:19.328Z,74.01
2022-08-03T22:35:23.865Z,74.68
2022-08-03T22:40:26.722Z,74.44
2022-08-03T22:46:07.543Z,73.97
2022-08-03T22:50:50.778Z,74.89
2022-08-03T22:55:52.934Z,75.02
2022-08-03T23:00:58.617Z,74.80
2022-08-03T23:06:03.699Z,75.43
2022-08-03T23:11:08.690Z,75.38
2022-08-03T23:16:10.705Z,75.76
2022-08-03T23:21:12.385Z,75.33
2022-08-03T23:26:17.655Z,75.24
2022-08-03T23:31:21.951Z,75.77
2022-08-03T23:36:31.198Z,75.76
2022-08-03T23:41:35.455Z,74.95
2022-08-03T23:46:38.309Z,74.91
2022-08-03T23:52:03.166Z,74.18
2022-08-03T23:57:04.945Z,74.21
